sensor_id;sensor_type;location;lat;lon;timestamp;P1;durP1;ratioP1;P2;durP2;ratioP2
10461;SDS011;5278;42.656;23.374;2023-11-19T00:02:24;2.60;;;2.40;;
10461;SDS011;5278;42.656;23.374;2023-11-19T00:04:51;3.13;;;2.77;;
10461;SDS011;5278;42.656;23.374;2023-11-19T00:07:19;2.53;;;2.33;;
10461;SDS011;5278;42.656;23.374;2023-11-19T00:09:46;3.30;;;2.60;;
10461;SDS011;5278;42.656;23.374;2023-11-19T00:12:13;2.80;;;2.60;;
10461;SDS011;5278;42.656;23.374;2023-11-19T00:14:40;2.70;;;2.43;;
10461;SDS011;5278;42.656;23.374;2023-11-19T00:17:08;2.70;;;2.50;;
10461;SDS011;5278;42.656;23.374;2023-11-19T00:19:36;2.50;;;2.27;;
10461;SDS011;5278;42.656;23.374;2023-11-19T00:22:02;2.30;;;2.10;;
10461;SDS011;5278;42.656;23.374;2023-11-19T00:24:29;2.47;;;2.27;;
10461;SDS011;5278;42.656;23.374;2023-11-19T00:26:56;3.07;;;2.77;;
10461;SDS011;5278;42.656;23.374;2023-11-19T00:29:24;4.17;;;2.63;;
10461;SDS011;5278;42.656;23.374;2023-11-19T00:31:50;2.47;;;2.27;;
10461;SDS011;5278;42.656;23.374;2023-11-19T00:34:19;2.77;;;2.40;;
10461;SDS011;5278;42.656;23.374;2023-11-19T00:36:49;2.67;;;2.37;;
10461;SDS011;5278;42.656;23.374;2023-11-19T00:39:16;2.87;;;2.57;;
10461;SDS011;5278;42.656;23.374;2023-11-19T00:41:46;2.60;;;2.40;;
10461;SDS011;5278;42.656;23.374;2023-11-19T00:44:13;2.60;;;2.40;;
10461;SDS011;5278;42.656;23.374;2023-11-19T00:46:40;2.90;;;2.60;;
10461;SDS011;5278;42.656;23.374;2023-11-19T00:49:07;3.00;;;2.27;;
10461;SDS011;5278;42.656;23.374;2023-11-19T00:51:38;2.70;;;2.50;;
10461;SDS011;5278;42.656;23.374;2023-11-19T00:54:05;2.53;;;2.33;;
10461;SDS011;5278;42.656;23.374;2023-11-19T00:56:31;2.70;;;2.50;;
10461;SDS011;5278;42.656;23.374;2023-11-19T00:58:58;2.93;;;2.43;;
10461;SDS011;5278;42.656;23.374;2023-11-19T01:01:25;2.50;;;2.30;;
10461;SDS011;5278;42.656;23.374;2023-11-19T01:03:52;2.63;;;2.43;;
10461;SDS011;5278;42.656;23.374;2023-11-19T01:06:26;5.17;;;2.53;;
10461;SDS011;5278;42.656;23.374;2023-11-19T01:08:55;3.83;;;2.60;;
10461;SDS011;5278;42.656;23.374;2023-11-19T01:11:24;3.00;;;2.67;;
10461;SDS011;5278;42.656;23.374;2023-11-19T01:13:52;2.43;;;2.23;;
10461;SDS011;5278;42.656;23.374;2023-11-19T01:16:18;2.47;;;2.27;;
10461;SDS011;5278;42.656;23.374;2023-11-19T01:18:46;2.57;;;2.33;;
10461;SDS011;5278;42.656;23.374;2023-11-19T01:21:15;3.07;;;2.20;;
10461;SDS011;5278;42.656;23.374;2023-11-19T01:23:41;2.47;;;2.27;;
10461;SDS011;5278;42.656;23.374;2023-11-19T01:26:11;3.00;;;2.63;;
10461;SDS011;5278;42.656;23.374;2023-11-19T01:28:37;6.17;;;2.60;;
10461;SDS011;5278;42.656;23.374;2023-11-19T01:31:08;3.37;;;2.60;;
10461;SDS011;5278;42.656;23.374;2023-11-19T01:33:35;3.27;;;2.67;;
10461;SDS011;5278;42.656;23.374;2023-11-19T01:36:03;2.93;;;2.30;;
10461;SDS011;5278;42.656;23.374;2023-11-19T01:38:30;2.93;;;2.67;;
10461;SDS011;5278;42.656;23.374;2023-11-19T01:40:57;3.07;;;2.87;;
10461;SDS011;5278;42.656;23.374;2023-11-19T01:46:12;2.83;;;2.57;;
10461;SDS011;5278;42.656;23.374;2023-11-19T01:48:40;2.77;;;2.50;;
10461;SDS011;5278;42.656;23.374;2023-11-19T01:51:12;2.60;;;2.40;;
10461;SDS011;5278;42.656;23.374;2023-11-19T01:53:42;3.07;;;2.40;;
10461;SDS011;5278;42.656;23.374;2023-11-19T01:56:10;2.83;;;2.53;;
10461;SDS011;5278;42.656;23.374;2023-11-19T01:58:39;2.40;;;2.20;;
10461;SDS011;5278;42.656;23.374;2023-11-19T02:01:09;2.50;;;2.10;;
10461;SDS011;5278;42.656;23.374;2023-11-19T02:03:37;2.93;;;2.40;;
10461;SDS011;5278;42.656;23.374;2023-11-19T02:06:05;2.40;;;2.10;;
10461;SDS011;5278;42.656;23.374;2023-11-19T02:08:32;2.77;;;2.30;;
10461;SDS011;5278;42.656;23.374;2023-11-19T02:10:59;2.50;;;2.30;;
10461;SDS011;5278;42.656;23.374;2023-11-19T02:13:28;2.70;;;2.50;;
10461;SDS011;5278;42.656;23.374;2023-11-19T02:15:56;2.40;;;2.20;;
10461;SDS011;5278;42.656;23.374;2023-11-19T02:18:26;2.33;;;2.10;;
10461;SDS011;5278;42.656;23.374;2023-11-19T02:20:54;2.40;;;2.20;;
10461;SDS011;5278;42.656;23.374;2023-11-19T02:23:21;2.30;;;2.10;;
10461;SDS011;5278;42.656;23.374;2023-11-19T02:25:54;3.07;;;2.50;;
10461;SDS011;5278;42.656;23.374;2023-11-19T02:28:30;2.30;;;2.10;;
10461;SDS011;5278;42.656;23.374;2023-11-19T02:30:58;2.40;;;2.03;;
10461;SDS011;5278;42.656;23.374;2023-11-19T02:33:25;2.90;;;2.27;;
10461;SDS011;5278;42.656;23.374;2023-11-19T02:35:53;2.60;;;2.20;;
10461;SDS011;5278;42.656;23.374;2023-11-19T02:38:20;2.30;;;2.10;;
10461;SDS011;5278;42.656;23.374;2023-11-19T02:40:48;3.07;;;2.47;;
10461;SDS011;5278;42.656;23.374;2023-11-19T02:43:15;2.50;;;2.30;;
10461;SDS011;5278;42.656;23.374;2023-11-19T02:45:44;2.30;;;2.10;;
10461;SDS011;5278;42.656;23.374;2023-11-19T02:48:11;2.60;;;2.40;;
10461;SDS011;5278;42.656;23.374;2023-11-19T02:50:39;2.20;;;2.00;;
10461;SDS011;5278;42.656;23.374;2023-11-19T02:53:06;2.63;;;2.20;;
10461;SDS011;5278;42.656;23.374;2023-11-19T02:55:33;2.43;;;2.20;;
10461;SDS011;5278;42.656;23.374;2023-11-19T02:58:03;2.40;;;2.20;;
10461;SDS011;5278;42.656;23.374;2023-11-19T03:00:46;2.70;;;2.17;;
10461;SDS011;5278;42.656;23.374;2023-11-19T03:03:17;2.37;;;2.17;;
10461;SDS011;5278;42.656;23.374;2023-11-19T03:05:47;2.93;;;2.10;;
10461;SDS011;5278;42.656;23.374;2023-11-19T03:08:14;4.07;;;2.60;;
10461;SDS011;5278;42.656;23.374;2023-11-19T03:10:41;2.10;;;1.83;;
10461;SDS011;5278;42.656;23.374;2023-11-19T03:13:11;2.40;;;2.20;;
10461;SDS011;5278;42.656;23.374;2023-11-19T03:15:40;2.10;;;1.80;;
10461;SDS011;5278;42.656;23.374;2023-11-19T03:18:09;2.27;;;2.07;;
10461;SDS011;5278;42.656;23.374;2023-11-19T03:20:36;2.40;;;2.20;;
10461;SDS011;5278;42.656;23.374;2023-11-19T03:23:02;2.47;;;2.27;;
10461;SDS011;5278;42.656;23.374;2023-11-19T03:25:29;2.87;;;2.17;;
10461;SDS011;5278;42.656;23.374;2023-11-19T03:27:59;3.03;;;2.63;;
10461;SDS011;5278;42.656;23.374;2023-11-19T03:30:27;2.30;;;2.10;;
10461;SDS011;5278;42.656;23.374;2023-11-19T03:32:54;3.60;;;2.67;;
10461;SDS011;5278;42.656;23.374;2023-11-19T03:35:22;2.60;;;2.40;;
10461;SDS011;5278;42.656;23.374;2023-11-19T03:37:49;2.27;;;2.07;;
10461;SDS011;5278;42.656;23.374;2023-11-19T03:40:18;2.33;;;2.10;;
10461;SDS011;5278;42.656;23.374;2023-11-19T03:42:45;2.90;;;2.43;;
10461;SDS011;5278;42.656;23.374;2023-11-19T03:45:12;3.10;;;2.57;;
10461;SDS011;5278;42.656;23.374;2023-11-19T03:47:40;2.00;;;1.90;;
10461;SDS011;5278;42.656;23.374;2023-11-19T03:50:07;2.53;;;2.33;;
10461;SDS011;5278;42.656;23.374;2023-11-19T03:52:36;2.47;;;2.27;;
10461;SDS011;5278;42.656;23.374;2023-11-19T03:55:03;2.73;;;2.53;;
10461;SDS011;5278;42.656;23.374;2023-11-19T03:57:33;2.27;;;2.00;;
10461;SDS011;5278;42.656;23.374;2023-11-19T04:00:00;2.43;;;2.23;;
10461;SDS011;5278;42.656;23.374;2023-11-19T04:02:33;3.00;;;2.57;;
10461;SDS011;5278;42.656;23.374;2023-11-19T04:04:59;3.60;;;2.67;;
10461;SDS011;5278;42.656;23.374;2023-11-19T04:07:26;2.77;;;2.57;;
10461;SDS011;5278;42.656;23.374;2023-11-19T04:09:54;2.33;;;2.13;;
10461;SDS011;5278;42.656;23.374;2023-11-19T04:12:21;2.63;;;2.40;;
10461;SDS011;5278;42.656;23.374;2023-11-19T04:14:48;2.67;;;2.43;;
10461;SDS011;5278;42.656;23.374;2023-11-19T04:17:15;3.03;;;2.20;;
10461;SDS011;5278;42.656;23.374;2023-11-19T04:19:42;2.60;;;2.40;;
10461;SDS011;5278;42.656;23.374;2023-11-19T04:22:08;3.63;;;2.63;;
10461;SDS011;5278;42.656;23.374;2023-11-19T04:24:35;4.37;;;2.40;;
10461;SDS011;5278;42.656;23.374;2023-11-19T04:27:05;3.20;;;2.67;;
10461;SDS011;5278;42.656;23.374;2023-11-19T04:29:32;2.67;;;2.47;;
10461;SDS011;5278;42.656;23.374;2023-11-19T04:31:59;2.50;;;2.30;;
10461;SDS011;5278;42.656;23.374;2023-11-19T04:34:26;2.83;;;2.50;;
10461;SDS011;5278;42.656;23.374;2023-11-19T04:36:53;2.03;;;1.93;;
10461;SDS011;5278;42.656;23.374;2023-11-19T04:39:20;3.07;;;2.77;;
10461;SDS011;5278;42.656;23.374;2023-11-19T04:41:47;2.93;;;2.40;;
10461;SDS011;5278;42.656;23.374;2023-11-19T04:44:17;3.00;;;2.70;;
10461;SDS011;5278;42.656;23.374;2023-11-19T04:46:45;2.80;;;2.37;;
10461;SDS011;5278;42.656;23.374;2023-11-19T04:49:12;3.50;;;2.60;;
10461;SDS011;5278;42.656;23.374;2023-11-19T04:51:40;3.03;;;2.70;;
10461;SDS011;5278;42.656;23.374;2023-11-19T04:54:08;2.80;;;2.50;;
10461;SDS011;5278;42.656;23.374;2023-11-19T04:56:35;2.70;;;2.27;;
10461;SDS011;5278;42.656;23.374;2023-11-19T04:59:03;4.13;;;2.73;;
10461;SDS011;5278;42.656;23.374;2023-11-19T05:01:32;3.17;;;2.43;;
10461;SDS011;5278;42.656;23.374;2023-11-19T05:03:59;2.60;;;2.40;;
10461;SDS011;5278;42.656;23.374;2023-11-19T05:06:26;2.70;;;2.47;;
10461;SDS011;5278;42.656;23.374;2023-11-19T05:08:54;2.67;;;2.47;;
10461;SDS011;5278;42.656;23.374;2023-11-19T05:11:21;2.57;;;2.30;;
10461;SDS011;5278;42.656;23.374;2023-11-19T05:13:48;3.40;;;2.63;;
10461;SDS011;5278;42.656;23.374;2023-11-19T05:16:15;3.10;;;2.80;;
10461;SDS011;5278;42.656;23.374;2023-11-19T05:18:44;2.50;;;2.27;;
10461;SDS011;5278;42.656;23.374;2023-11-19T05:21:11;2.73;;;2.47;;
10461;SDS011;5278;42.656;23.374;2023-11-19T05:23:38;2.37;;;2.10;;
10461;SDS011;5278;42.656;23.374;2023-11-19T05:26:06;3.27;;;2.97;;
10461;SDS011;5278;42.656;23.374;2023-11-19T05:28:33;2.90;;;2.40;;
10461;SDS011;5278;42.656;23.374;2023-11-19T05:31:00;2.43;;;2.23;;
10461;SDS011;5278;42.656;23.374;2023-11-19T05:33:27;3.27;;;2.80;;
10461;SDS011;5278;42.656;23.374;2023-11-19T05:35:55;2.63;;;2.43;;
10461;SDS011;5278;42.656;23.374;2023-11-19T05:38:22;2.20;;;2.00;;
10461;SDS011;5278;42.656;23.374;2023-11-19T05:40:49;2.60;;;2.40;;
10461;SDS011;5278;42.656;23.374;2023-11-19T05:43:18;2.73;;;2.20;;
10461;SDS011;5278;42.656;23.374;2023-11-19T05:45:45;3.03;;;2.20;;
10461;SDS011;5278;42.656;23.374;2023-11-19T05:48:12;3.27;;;2.40;;
10461;SDS011;5278;42.656;23.374;2023-11-19T05:50:39;2.80;;;2.57;;
10461;SDS011;5278;42.656;23.374;2023-11-19T05:53:07;4.20;;;3.00;;
10461;SDS011;5278;42.656;23.374;2023-11-19T05:55:35;2.87;;;2.53;;
10461;SDS011;5278;42.656;23.374;2023-11-19T05:58:10;3.03;;;2.73;;
10461;SDS011;5278;42.656;23.374;2023-11-19T06:00:38;3.63;;;2.50;;
10461;SDS011;5278;42.656;23.374;2023-11-19T06:03:05;2.83;;;2.63;;
10461;SDS011;5278;42.656;23.374;2023-11-19T06:05:32;2.40;;;2.20;;
10461;SDS011;5278;42.656;23.374;2023-11-19T06:07:59;2.90;;;2.60;;
10461;SDS011;5278;42.656;23.374;2023-11-19T06:10:28;2.70;;;2.50;;
10461;SDS011;5278;42.656;23.374;2023-11-19T06:12:58;3.73;;;2.37;;
10461;SDS011;5278;42.656;23.374;2023-11-19T06:15:26;3.33;;;2.47;;
10461;SDS011;5278;42.656;23.374;2023-11-19T06:17:55;2.63;;;2.33;;
10461;SDS011;5278;42.656;23.374;2023-11-19T06:20:28;2.33;;;2.13;;
10461;SDS011;5278;42.656;23.374;2023-11-19T06:22:56;2.90;;;2.60;;
10461;SDS011;5278;42.656;23.374;2023-11-19T06:25:24;3.70;;;2.53;;
10461;SDS011;5278;42.656;23.374;2023-11-19T06:27:53;3.37;;;2.70;;
10461;SDS011;5278;42.656;23.374;2023-11-19T06:30:20;3.10;;;2.80;;
10461;SDS011;5278;42.656;23.374;2023-11-19T06:32:47;2.53;;;2.33;;
10461;SDS011;5278;42.656;23.374;2023-11-19T06:35:14;3.03;;;2.70;;
10461;SDS011;5278;42.656;23.374;2023-11-19T06:37:41;3.17;;;2.87;;
10461;SDS011;5278;42.656;23.374;2023-11-19T06:40:08;2.43;;;2.23;;
10461;SDS011;5278;42.656;23.374;2023-11-19T06:42:37;3.20;;;2.90;;
10461;SDS011;5278;42.656;23.374;2023-11-19T06:45:06;4.73;;;2.50;;
10461;SDS011;5278;42.656;23.374;2023-11-19T06:47:34;2.33;;;2.13;;
10461;SDS011;5278;42.656;23.374;2023-11-19T06:50:01;3.73;;;2.80;;
10461;SDS011;5278;42.656;23.374;2023-11-19T06:52:30;4.47;;;3.13;;
10461;SDS011;5278;42.656;23.374;2023-11-19T06:54:57;6.53;;;2.70;;
10461;SDS011;5278;42.656;23.374;2023-11-19T06:57:24;2.40;;;2.20;;
10461;SDS011;5278;42.656;23.374;2023-11-19T06:59:51;3.20;;;2.90;;
10461;SDS011;5278;42.656;23.374;2023-11-19T07:02:19;3.63;;;3.03;;
10461;SDS011;5278;42.656;23.374;2023-11-19T07:04:46;3.00;;;2.70;;
10461;SDS011;5278;42.656;23.374;2023-11-19T07:07:13;2.67;;;2.43;;
10461;SDS011;5278;42.656;23.374;2023-11-19T07:09:41;6.63;;;3.20;;
10461;SDS011;5278;42.656;23.374;2023-11-19T07:12:08;4.03;;;2.97;;
10461;SDS011;5278;42.656;23.374;2023-11-19T07:14:36;4.07;;;3.07;;
10461;SDS011;5278;42.656;23.374;2023-11-19T07:17:03;3.50;;;2.90;;
10461;SDS011;5278;42.656;23.374;2023-11-19T07:19:32;3.00;;;2.70;;
10461;SDS011;5278;42.656;23.374;2023-11-19T07:22:00;3.23;;;2.63;;
10461;SDS011;5278;42.656;23.374;2023-11-19T07:24:27;3.10;;;2.53;;
10461;SDS011;5278;42.656;23.374;2023-11-19T07:26:54;4.30;;;2.47;;
10461;SDS011;5278;42.656;23.374;2023-11-19T07:29:21;3.93;;;3.17;;
10461;SDS011;5278;42.656;23.374;2023-11-19T07:31:48;8.27;;;2.90;;
10461;SDS011;5278;42.656;23.374;2023-11-19T07:34:15;3.50;;;3.20;;
10461;SDS011;5278;42.656;23.374;2023-11-19T07:36:43;3.07;;;2.53;;
10461;SDS011;5278;42.656;23.374;2023-11-19T07:39:10;3.30;;;3.00;;
10461;SDS011;5278;42.656;23.374;2023-11-19T07:41:37;3.57;;;2.83;;
10461;SDS011;5278;42.656;23.374;2023-11-19T07:44:04;2.70;;;2.50;;
10461;SDS011;5278;42.656;23.374;2023-11-19T07:46:31;3.23;;;2.93;;
10461;SDS011;5278;42.656;23.374;2023-11-19T07:48:58;3.60;;;2.90;;
10461;SDS011;5278;42.656;23.374;2023-11-19T07:51:25;4.07;;;2.80;;
10461;SDS011;5278;42.656;23.374;2023-11-19T07:53:53;3.90;;;2.63;;
10461;SDS011;5278;42.656;23.374;2023-11-19T07:56:20;3.37;;;2.70;;
10461;SDS011;5278;42.656;23.374;2023-11-19T07:58:47;2.73;;;2.53;;
10461;SDS011;5278;42.656;23.374;2023-11-19T08:01:15;3.03;;;2.70;;
10461;SDS011;5278;42.656;23.374;2023-11-19T08:03:42;3.27;;;2.90;;
10461;SDS011;5278;42.656;23.374;2023-11-19T08:06:09;2.97;;;2.67;;
10461;SDS011;5278;42.656;23.374;2023-11-19T08:08:36;3.07;;;2.60;;
10461;SDS011;5278;42.656;23.374;2023-11-19T08:11:05;3.00;;;2.70;;
10461;SDS011;5278;42.656;23.374;2023-11-19T08:13:32;3.73;;;3.17;;
10461;SDS011;5278;42.656;23.374;2023-11-19T08:15:59;3.20;;;2.90;;
10461;SDS011;5278;42.656;23.374;2023-11-19T08:18:26;3.13;;;2.53;;
10461;SDS011;5278;42.656;23.374;2023-11-19T08:20:53;3.60;;;2.93;;
10461;SDS011;5278;42.656;23.374;2023-11-19T08:23:21;3.77;;;3.07;;
10461;SDS011;5278;42.656;23.374;2023-11-19T08:25:50;2.77;;;2.57;;
10461;SDS011;5278;42.656;23.374;2023-11-19T08:28:19;2.90;;;2.47;;
10461;SDS011;5278;42.656;23.374;2023-11-19T08:30:46;5.27;;;3.00;;
10461;SDS011;5278;42.656;23.374;2023-11-19T08:33:13;3.40;;;2.83;;
10461;SDS011;5278;42.656;23.374;2023-11-19T08:35:40;2.97;;;2.63;;
10461;SDS011;5278;42.656;23.374;2023-11-19T08:38:07;2.73;;;2.50;;
10461;SDS011;5278;42.656;23.374;2023-11-19T08:40:34;3.00;;;2.60;;
10461;SDS011;5278;42.656;23.374;2023-11-19T08:43:02;2.77;;;2.57;;
10461;SDS011;5278;42.656;23.374;2023-11-19T08:45:30;2.20;;;2.00;;
10461;SDS011;5278;42.656;23.374;2023-11-19T08:47:57;2.30;;;2.10;;
10461;SDS011;5278;42.656;23.374;2023-11-19T08:50:24;2.70;;;2.30;;
10461;SDS011;5278;42.656;23.374;2023-11-19T08:52:52;3.53;;;2.50;;
10461;SDS011;5278;42.656;23.374;2023-11-19T08:55:19;3.03;;;2.73;;
10461;SDS011;5278;42.656;23.374;2023-11-19T08:57:47;2.83;;;2.43;;
10461;SDS011;5278;42.656;23.374;2023-11-19T09:00:14;2.70;;;2.50;;
10461;SDS011;5278;42.656;23.374;2023-11-19T09:02:44;2.60;;;2.40;;
10461;SDS011;5278;42.656;23.374;2023-11-19T09:05:11;2.53;;;2.33;;
10461;SDS011;5278;42.656;23.374;2023-11-19T09:07:38;3.23;;;2.43;;
10461;SDS011;5278;42.656;23.374;2023-11-19T09:10:06;3.20;;;2.90;;
10461;SDS011;5278;42.656;23.374;2023-11-19T09:12:33;3.53;;;3.00;;
10461;SDS011;5278;42.656;23.374;2023-11-19T09:15:01;4.67;;;3.40;;
10461;SDS011;5278;42.656;23.374;2023-11-19T09:17:28;2.90;;;2.60;;
10461;SDS011;5278;42.656;23.374;2023-11-19T09:19:57;3.40;;;3.10;;
10461;SDS011;5278;42.656;23.374;2023-11-19T09:22:24;3.47;;;3.10;;
10461;SDS011;5278;42.656;23.374;2023-11-19T09:24:51;2.90;;;2.60;;
10461;SDS011;5278;42.656;23.374;2023-11-19T09:27:18;3.67;;;2.70;;
10461;SDS011;5278;42.656;23.374;2023-11-19T09:29:45;3.33;;;2.20;;
10461;SDS011;5278;42.656;23.374;2023-11-19T09:32:14;3.23;;;2.67;;
10461;SDS011;5278;42.656;23.374;2023-11-19T09:34:42;2.83;;;2.60;;
10461;SDS011;5278;42.656;23.374;2023-11-19T09:37:10;2.80;;;2.40;;
10461;SDS011;5278;42.656;23.374;2023-11-19T09:39:37;3.20;;;2.67;;
10461;SDS011;5278;42.656;23.374;2023-11-19T09:42:08;6.17;;;4.47;;
10461;SDS011;5278;42.656;23.374;2023-11-19T09:44:35;5.30;;;2.80;;
10461;SDS011;5278;42.656;23.374;2023-11-19T09:47:05;2.80;;;2.60;;
10461;SDS011;5278;42.656;23.374;2023-11-19T09:49:33;2.87;;;2.63;;
10461;SDS011;5278;42.656;23.374;2023-11-19T09:52:02;3.07;;;2.77;;
10461;SDS011;5278;42.656;23.374;2023-11-19T09:54:30;2.43;;;2.23;;
10461;SDS011;5278;42.656;23.374;2023-11-19T10:32:20;2.90;;;2.60;;
10461;SDS011;5278;42.656;23.374;2023-11-19T10:34:47;2.90;;;2.60;;
10461;SDS011;5278;42.656;23.374;2023-11-19T10:37:27;2.43;;;2.23;;
10461;SDS011;5278;42.656;23.374;2023-11-19T10:39:54;3.23;;;2.60;;
10461;SDS011;5278;42.656;23.374;2023-11-19T10:42:21;2.50;;;2.30;;
10461;SDS011;5278;42.656;23.374;2023-11-19T10:44:48;2.50;;;2.30;;
10461;SDS011;5278;42.656;23.374;2023-11-19T10:47:15;2.60;;;2.40;;
10461;SDS011;5278;42.656;23.374;2023-11-19T10:49:47;2.47;;;2.27;;
10461;SDS011;5278;42.656;23.374;2023-11-19T10:52:17;3.27;;;2.33;;
10461;SDS011;5278;42.656;23.374;2023-11-19T10:54:44;2.60;;;2.40;;
10461;SDS011;5278;42.656;23.374;2023-11-19T10:57:16;2.27;;;2.07;;
10461;SDS011;5278;42.656;23.374;2023-11-19T10:59:47;5.37;;;2.60;;
10461;SDS011;5278;42.656;23.374;2023-11-19T11:02:18;2.70;;;2.50;;
10461;SDS011;5278;42.656;23.374;2023-11-19T11:04:48;2.73;;;2.50;;
10461;SDS011;5278;42.656;23.374;2023-11-19T11:07:17;3.00;;;2.67;;
10461;SDS011;5278;42.656;23.374;2023-11-19T11:09:51;2.77;;;2.57;;
10461;SDS011;5278;42.656;23.374;2023-11-19T11:12:19;3.70;;;2.90;;
10461;SDS011;5278;42.656;23.374;2023-11-19T11:14:48;3.13;;;2.70;;
10461;SDS011;5278;42.656;23.374;2023-11-19T11:17:17;3.30;;;3.00;;
10461;SDS011;5278;42.656;23.374;2023-11-19T11:19:46;3.47;;;2.70;;
10461;SDS011;5278;42.656;23.374;2023-11-19T11:22:13;4.07;;;2.80;;
10461;SDS011;5278;42.656;23.374;2023-11-19T11:30:56;2.40;;;2.20;;
10461;SDS011;5278;42.656;23.374;2023-11-19T11:33:38;3.00;;;2.70;;
10461;SDS011;5278;42.656;23.374;2023-11-19T11:36:17;3.73;;;2.77;;
10461;SDS011;5278;42.656;23.374;2023-11-19T11:38:47;2.67;;;2.40;;
10461;SDS011;5278;42.656;23.374;2023-11-19T11:41:15;2.33;;;2.13;;
10461;SDS011;5278;42.656;23.374;2023-11-19T11:43:46;3.70;;;2.77;;
10461;SDS011;5278;42.656;23.374;2023-11-19T11:49:27;2.50;;;2.30;;
10461;SDS011;5278;42.656;23.374;2023-11-19T11:52:01;3.00;;;2.80;;
10461;SDS011;5278;42.656;23.374;2023-11-19T11:54:32;2.60;;;2.40;;
10461;SDS011;5278;42.656;23.374;2023-11-19T11:59:50;3.07;;;2.10;;
10461;SDS011;5278;42.656;23.374;2023-11-19T12:02:18;2.80;;;2.50;;
10461;SDS011;5278;42.656;23.374;2023-11-19T12:04:47;2.73;;;2.40;;
10461;SDS011;5278;42.656;23.374;2023-11-19T12:07:18;2.60;;;2.40;;
10461;SDS011;5278;42.656;23.374;2023-11-19T12:09:52;2.40;;;2.23;;
10461;SDS011;5278;42.656;23.374;2023-11-19T12:12:26;2.53;;;2.30;;
10461;SDS011;5278;42.656;23.374;2023-11-19T12:15:03;3.20;;;2.43;;
10461;SDS011;5278;42.656;23.374;2023-11-19T12:17:36;2.60;;;2.40;;
10461;SDS011;5278;42.656;23.374;2023-11-19T12:20:05;2.40;;;2.20;;
10461;SDS011;5278;42.656;23.374;2023-11-19T12:22:36;3.00;;;2.80;;
10461;SDS011;5278;42.656;23.374;2023-11-19T12:25:04;3.23;;;2.93;;
10461;SDS011;5278;42.656;23.374;2023-11-19T12:27:32;2.90;;;2.70;;
10461;SDS011;5278;42.656;23.374;2023-11-19T12:30:00;3.73;;;2.83;;
10461;SDS011;5278;42.656;23.374;2023-11-19T12:32:36;3.43;;;3.13;;
10461;SDS011;5278;42.656;23.374;2023-11-19T12:35:05;2.50;;;2.30;;
10461;SDS011;5278;42.656;23.374;2023-11-19T12:37:40;2.83;;;2.53;;
10461;SDS011;5278;42.656;23.374;2023-11-19T12:40:11;3.03;;;2.80;;
10461;SDS011;5278;42.656;23.374;2023-11-19T12:42:42;3.20;;;2.90;;
10461;SDS011;5278;42.656;23.374;2023-11-19T12:45:09;4.00;;;3.60;;
10461;SDS011;5278;42.656;23.374;2023-11-19T12:47:37;4.90;;;3.40;;
10461;SDS011;5278;42.656;23.374;2023-11-19T12:50:05;3.03;;;2.73;;
10461;SDS011;5278;42.656;23.374;2023-11-19T12:52:33;3.87;;;3.10;;
10461;SDS011;5278;42.656;23.374;2023-11-19T12:55:01;4.40;;;3.50;;
10461;SDS011;5278;42.656;23.374;2023-11-19T12:57:38;6.47;;;4.20;;
10461;SDS011;5278;42.656;23.374;2023-11-19T13:00:06;6.17;;;3.90;;
10461;SDS011;5278;42.656;23.374;2023-11-19T13:02:44;6.50;;;3.50;;
10461;SDS011;5278;42.656;23.374;2023-11-19T13:05:25;5.60;;;3.40;;
10461;SDS011;5278;42.656;23.374;2023-11-19T13:08:00;3.70;;;3.40;;
10461;SDS011;5278;42.656;23.374;2023-11-19T13:10:29;3.27;;;2.97;;
10461;SDS011;5278;42.656;23.374;2023-11-19T13:13:02;4.07;;;3.33;;
10461;SDS011;5278;42.656;23.374;2023-11-19T13:15:30;3.40;;;3.10;;
10461;SDS011;5278;42.656;23.374;2023-11-19T13:17:58;3.17;;;2.87;;
10461;SDS011;5278;42.656;23.374;2023-11-19T13:20:25;3.53;;;3.23;;
10461;SDS011;5278;42.656;23.374;2023-11-19T13:22:56;3.80;;;3.17;;
10461;SDS011;5278;42.656;23.374;2023-11-19T13:25:23;3.60;;;3.20;;
10461;SDS011;5278;42.656;23.374;2023-11-19T13:27:52;4.17;;;3.23;;
10461;SDS011;5278;42.656;23.374;2023-11-19T13:30:19;4.40;;;3.47;;
10461;SDS011;5278;42.656;23.374;2023-11-19T13:32:47;3.50;;;3.07;;
10461;SDS011;5278;42.656;23.374;2023-11-19T13:35:14;4.03;;;3.17;;
10461;SDS011;5278;42.656;23.374;2023-11-19T13:37:42;3.60;;;3.00;;
10461;SDS011;5278;42.656;23.374;2023-11-19T13:40:09;4.93;;;3.73;;
10461;SDS011;5278;42.656;23.374;2023-11-19T13:42:39;3.93;;;3.40;;
10461;SDS011;5278;42.656;23.374;2023-11-19T13:45:09;4.30;;;2.90;;
10461;SDS011;5278;42.656;23.374;2023-11-19T13:47:45;3.53;;;3.07;;
10461;SDS011;5278;42.656;23.374;2023-11-19T13:50:13;4.13;;;3.07;;
10461;SDS011;5278;42.656;23.374;2023-11-19T13:52:42;3.57;;;3.07;;
10461;SDS011;5278;42.656;23.374;2023-11-19T13:55:11;3.73;;;2.77;;
10461;SDS011;5278;42.656;23.374;2023-11-19T13:57:38;3.97;;;3.27;;
10461;SDS011;5278;42.656;23.374;2023-11-19T14:00:07;3.47;;;3.00;;
10461;SDS011;5278;42.656;23.374;2023-11-19T14:02:38;5.03;;;3.40;;
10461;SDS011;5278;42.656;23.374;2023-11-19T14:05:05;5.53;;;3.60;;
10461;SDS011;5278;42.656;23.374;2023-11-19T14:07:32;3.47;;;3.10;;
10461;SDS011;5278;42.656;23.374;2023-11-19T14:09:59;5.33;;;3.40;;
10461;SDS011;5278;42.656;23.374;2023-11-19T14:12:26;3.50;;;3.07;;
10461;SDS011;5278;42.656;23.374;2023-11-19T14:14:53;7.83;;;3.60;;
10461;SDS011;5278;42.656;23.374;2023-11-19T14:17:22;4.47;;;3.77;;
10461;SDS011;5278;42.656;23.374;2023-11-19T14:19:50;4.53;;;3.37;;
10461;SDS011;5278;42.656;23.374;2023-11-19T14:22:16;4.43;;;3.77;;
10461;SDS011;5278;42.656;23.374;2023-11-19T14:24:43;5.77;;;3.90;;
10461;SDS011;5278;42.656;23.374;2023-11-19T14:27:12;10.83;;;4.37;;
10461;SDS011;5278;42.656;23.374;2023-11-19T14:29:40;4.70;;;3.67;;
10461;SDS011;5278;42.656;23.374;2023-11-19T14:32:07;4.07;;;3.60;;
10461;SDS011;5278;42.656;23.374;2023-11-19T14:34:35;3.70;;;3.23;;
10461;SDS011;5278;42.656;23.374;2023-11-19T14:37:02;4.50;;;3.53;;
10461;SDS011;5278;42.656;23.374;2023-11-19T14:39:29;4.07;;;3.07;;
10461;SDS011;5278;42.656;23.374;2023-11-19T14:41:57;4.40;;;3.60;;
10461;SDS011;5278;42.656;23.374;2023-11-19T14:44:29;4.63;;;3.90;;
10461;SDS011;5278;42.656;23.374;2023-11-19T14:46:57;4.73;;;4.13;;
10461;SDS011;5278;42.656;23.374;2023-11-19T14:49:24;4.03;;;3.33;;
10461;SDS011;5278;42.656;23.374;2023-11-19T14:51:54;4.00;;;3.57;;
10461;SDS011;5278;42.656;23.374;2023-11-19T14:54:21;5.70;;;3.90;;
10461;SDS011;5278;42.656;23.374;2023-11-19T14:56:49;3.30;;;3.00;;
10461;SDS011;5278;42.656;23.374;2023-11-19T14:59:17;4.47;;;3.53;;
10461;SDS011;5278;42.656;23.374;2023-11-19T15:01:44;5.73;;;4.00;;
10461;SDS011;5278;42.656;23.374;2023-11-19T15:04:11;4.33;;;3.57;;
10461;SDS011;5278;42.656;23.374;2023-11-19T15:06:38;4.20;;;3.73;;
10461;SDS011;5278;42.656;23.374;2023-11-19T15:09:06;7.37;;;3.80;;
10461;SDS011;5278;42.656;23.374;2023-11-19T15:11:35;4.97;;;4.43;;
10461;SDS011;5278;42.656;23.374;2023-11-19T15:14:02;5.50;;;4.37;;
10461;SDS011;5278;42.656;23.374;2023-11-19T15:16:31;6.47;;;4.30;;
10461;SDS011;5278;42.656;23.374;2023-11-19T15:18:59;5.63;;;4.30;;
10461;SDS011;5278;42.656;23.374;2023-11-19T15:21:28;5.50;;;4.50;;
10461;SDS011;5278;42.656;23.374;2023-11-19T15:23:55;5.97;;;4.27;;
10461;SDS011;5278;42.656;23.374;2023-11-19T15:26:24;5.27;;;3.80;;
10461;SDS011;5278;42.656;23.374;2023-11-19T15:28:50;4.27;;;3.87;;
10461;SDS011;5278;42.656;23.374;2023-11-19T15:31:21;7.07;;;4.47;;
10461;SDS011;5278;42.656;23.374;2023-11-19T15:33:48;4.93;;;4.43;;
10461;SDS011;5278;42.656;23.374;2023-11-19T15:36:15;4.87;;;3.77;;
10461;SDS011;5278;42.656;23.374;2023-11-19T15:38:42;6.63;;;4.47;;
10461;SDS011;5278;42.656;23.374;2023-11-19T15:41:10;4.83;;;4.10;;
10461;SDS011;5278;42.656;23.374;2023-11-19T15:43:39;4.63;;;4.20;;
10461;SDS011;5278;42.656;23.374;2023-11-19T15:46:06;6.43;;;4.87;;